createdAt,value
2018-01-02T00:00:09.467Z,96.26
2018-01-02T00:00:37.852Z,96.06
2018-01-02T00:01:06.504Z,96.26
2018-01-02T00:01:34.921Z,95.97
2018-01-02T00:02:03.572Z,96.45
2018-01-02T00:02:32.219Z,96.16
2018-01-02T00:03:00.891Z,96.06
2018-01-02T00:03:29.563Z,96.16
2018-01-02T00:03:58.068Z,95.97
2018-01-02T00:04:26.587Z,96.06
2018-01-02T00:04:55.217Z,95.97
2018-01-02T00:05:23.790Z,96.26
2018-01-02T00:05:52.295Z,96.45
2018-01-02T00:06:20.722Z,97.03
2018-01-02T00:06:49.361Z,97.71
2018-01-02T00:07:17.844Z,98.1
2018-01-02T00:07:46.357Z,98.1
2018-01-02T00:08:14.750Z,98.49
2018-01-02T00:08:43.232Z,99.46
2018-01-02T00:09:11.912Z,99.07
2018-01-02T00:09:40.472Z,98.3
2018-01-02T00:10:08.879Z,98.49
2018-01-02T00:10:37.405Z,98.3
2018-01-02T00:11:05.892Z,98.97
2018-01-02T00:11:34.475Z,99.95
2018-01-02T00:12:03.185Z,99.75
2018-01-02T00:12:31.704Z,99.46
2018-01-02T00:13:00.334Z,99.99
2018-01-02T00:13:28.962Z,99.99
2018-01-02T00:13:57.361Z,99.65
2018-01-02T00:14:25.831Z,99.99
2018-01-02T00:14:54.276Z,99.65
2018-01-02T00:15:22.889Z,99.95
2018-01-02T00:15:51.340Z,99.75
2018-01-02T00:16:19.901Z,99.36
2018-01-02T00:16:48.484Z,98.97
2018-01-02T00:17:16.979Z,99.36
2018-01-02T00:17:45.620Z,99.36
2018-01-02T00:18:14.101Z,99.46
2018-01-02T00:18:42.508Z,98.68
2018-01-02T00:19:10.802Z,99.36
2018-01-02T00:19:39.300Z,99.99
2018-01-02T00:20:07.718Z,99.99
2018-01-02T00:20:36.225Z,99.46
2018-01-02T00:21:04.637Z,99.46
2018-01-02T00:21:33.162Z,99.99
2018-01-02T00:22:01.709Z,99.99
2018-01-02T00:22:30.333Z,99.99
2018-01-02T00:22:58.826Z,99.99
2018-01-02T00:23:27.464Z,99.99
2018-01-02T00:23:55.947Z,99.99
2018-01-02T00:24:24.490Z,99.99
2018-01-02T00:24:52.962Z,99.99
2018-01-02T00:25:21.574Z,99.99
2018-01-02T00:25:50.107Z,99.85
2018-01-02T00:26:19.231Z,99.99
2018-01-02T00:26:47.804Z,99.99
2018-01-02T00:27:16.659Z,99.99
2018-01-02T00:27:44.939Z,99.99
2018-01-02T00:28:13.458Z,99.99
2018-01-02T00:28:42.042Z,99.99
2018-01-02T00:29:10.658Z,99.99
2018-01-02T00:29:39.157Z,99.99
2018-01-02T00:30:07.741Z,99.99
2018-01-02T00:30:36.400Z,99.99
2018-01-02T00:31:05.001Z,99.99
2018-01-02T00:31:33.558Z,99.99
2018-01-02T00:32:02.159Z,99.99
2018-01-02T00:32:30.656Z,99.99
2018-01-02T00:32:59.269Z,99.99
2018-01-02T00:33:27.795Z,99.99
2018-01-02T00:33:56.412Z,99.9
2018-01-02T00:34:24.961Z,99.99
2018-01-02T00:34:53.463Z,99.99
2018-01-02T00:35:21.990Z,99.99
2018-01-02T00:35:50.471Z,99.99
2018-01-02T00:36:19.138Z,99.99
2018-01-02T00:36:47.685Z,99.75
2018-01-02T00:37:16.265Z,99.99
2018-01-02T00:37:44.743Z,99.99
2018-01-02T00:38:13.318Z,99.99
2018-01-02T00:38:41.789Z,99.99
2018-01-02T00:39:10.407Z,99.99
2018-01-02T00:39:38.908Z,99.99
2018-01-02T00:40:07.503Z,99.99
2018-01-02T00:40:35.999Z,99.99
2018-01-02T00:41:04.623Z,99.99
2018-01-02T00:41:33.134Z,99.99
2018-01-02T00:42:01.903Z,99.99
2018-01-02T00:42:30.394Z,99.99
2018-01-02T00:42:58.977Z,99.99
2018-01-02T00:43:27.473Z,99.99
2018-01-02T00:43:55.985Z,99.99
2018-01-02T00:44:24.572Z,99.99
2018-01-02T00:44:53.172Z,99.99
2018-01-02T00:45:21.680Z,99.99
2018-01-02T00:45:50.272Z,99.99
2018-01-02T00:46:18.754Z,99.99
2018-01-02T00:46:47.149Z,99.99
2018-01-02T00:47:15.972Z,99.99
2018-01-02T00:47:44.418Z,99.99
2018-01-02T00:48:13.020Z,99.99
2018-01-02T00:48:41.392Z,99.99
2018-01-02T00:49:09.892Z,99.99
2018-01-02T00:49:38.422Z,99.99
2018-01-02T00:50:06.909Z,99.99
2018-01-02T00:50:35.464Z,99.99
2018-01-02T00:51:04.075Z,99.99
2018-01-02T00:51:32.686Z,99.99
2018-01-02T00:52:01.266Z,99.99
2018-01-02T00:52:29.785Z,99.99
2018-01-02T00:52:58.323Z,99.99
2018-01-02T00:53:26.848Z,99.99
2018-01-02T00:53:55.387Z,99.99
2018-01-02T00:54:23.924Z,99.99
2018-01-02T00:54:52.510Z,99.99
2018-01-02T00:55:21.084Z,99.99
2018-01-02T00:55:49.505Z,99.99
2018-01-02T00:56:17.826Z,99.99
2018-01-02T00:56:46.149Z,99.99
2018-01-02T00:57:14.855Z,99.99
2018-01-02T00:57:43.268Z,99.99
2018-01-02T00:58:11.784Z,99.99
2018-01-02T00:58:40.196Z,99.99
2018-01-02T00:59:08.700Z,99.99
2018-01-02T00:59:37.204Z,99.99
2018-01-02T01:00:05.729Z,99.99
2018-01-02T01:00:34.112Z,99.99
2018-01-02T01:01:02.714Z,99.99
2018-01-02T01:01:31.318Z,99.99
2018-01-02T01:01:59.798Z,99.99
2018-01-02T01:02:28.443Z,99.99
2018-01-02T01:02:56.850Z,99.99
2018-01-02T01:03:25.416Z,99.99
2018-01-02T01:03:54.065Z,99.99
2018-01-02T01:04:22.654Z,99.99
2018-01-02T01:04:51.160Z,99.99
2018-01-02T01:05:19.777Z,99.99
2018-01-02T01:05:48.285Z,99.99
2018-01-02T01:06:16.799Z,99.99
2018-01-02T01:06:45.292Z,99.99
2018-01-02T01:07:13.797Z,99.99
2018-01-02T01:07:42.385Z,99.99
2018-01-02T01:08:10.895Z,99.99
2018-01-02T01:08:39.403Z,99.99
2018-01-02T01:09:07.953Z,99.99
2018-01-02T01:09:36.532Z,99.99
2018-01-02T01:10:05.064Z,99.99
2018-01-02T01:10:33.500Z,99.99
2018-01-02T01:11:01.954Z,99.99
2018-01-02T01:11:30.486Z,99.99
2018-01-02T01:11:59.715Z,99.99
2018-01-02T01:12:28.427Z,99.99
2018-01-02T01:12:57.042Z,99.99
2018-01-02T01:13:25.586Z,99.99
2018-01-02T01:13:54.107Z,99.99
2018-01-02T01:14:22.629Z,99.99
2018-01-02T01:14:51.020Z,99.99
2018-01-02T01:15:19.502Z,99.99
2018-01-02T01:15:47.996Z,99.99
2018-01-02T01:16:16.409Z,99.99
2018-01-02T01:16:44.875Z,99.99
2018-01-02T01:17:13.479Z,99.99
2018-01-02T01:17:41.852Z,99.99
2018-01-02T01:18:10.268Z,99.99
2018-01-02T01:18:38.867Z,99.99
2018-01-02T01:19:07.265Z,99.99
2018-01-02T01:19:35.711Z,99.99
2018-01-02T01:20:04.189Z,99.99
2018-01-02T01:20:32.656Z,99.99
2018-01-02T01:21:01.263Z,99.99
2018-01-02T01:21:29.794Z,99.99
2018-01-02T01:21:58.399Z,99.99
2018-01-02T01:22:26.835Z,99.99
2018-01-02T01:22:55.419Z,99.99
2018-01-02T01:23:23.942Z,99.99
2018-01-02T01:23:52.454Z,99.99
2018-01-02T01:24:21.032Z,99.99
2018-01-02T01:24:49.603Z,99.99
2018-01-02T01:25:18.263Z,99.99
2018-01-02T01:25:46.872Z,99.99
2018-01-02T01:26:15.480Z,99.99
2018-01-02T01:26:44.091Z,99.99
2018-01-02T01:27:12.718Z,99.99
2018-01-02T01:27:41.415Z,99.99
2018-01-02T01:28:09.990Z,99.99
2018-01-02T01:28:38.573Z,99.99
2018-01-02T01:29:06.971Z,99.99
2018-01-02T01:29:35.554Z,99.99
2018-01-02T01:30:04.192Z,99.99
2018-01-02T01:30:32.774Z,99.99
2018-01-02T01:31:01.280Z,99.99
2018-01-02T01:31:29.593Z,99.99
2018-01-02T01:31:58.190Z,99.99
2018-01-02T01:32:26.708Z,99.99
2018-01-02T01:32:55.109Z,99.99
2018-01-02T01:33:23.609Z,99.99
2018-01-02T01:33:52.196Z,99.99
2018-01-02T01:34:20.802Z,99.99
2018-01-02T01:34:49.324Z,99.99
2018-01-02T01:35:17.952Z,99.99
2018-01-02T01:35:46.432Z,99.99
2018-01-02T01:36:15.006Z,99.99
2018-01-02T01:36:43.608Z,99.99
2018-01-02T01:37:12.204Z,99.99
2018-01-02T01:37:40.538Z,99.99
2018-01-02T01:38:09.041Z,99.99
2018-01-02T01:38:37.594Z,99.99
2018-01-02T01:39:06.222Z,99.99
2018-01-02T01:39:34.697Z,99.99
2018-01-02T01:40:03.173Z,99.99
2018-01-02T01:40:31.722Z,99.99
2018-01-02T01:41:00.366Z,99.99
2018-01-02T01:41:28.967Z,99.99
2018-01-02T01:41:57.374Z,99.99
2018-01-02T01:42:25.990Z,99.99
2018-01-02T01:42:54.730Z,99.99
2018-01-02T01:43:23.250Z,99.99
2018-01-02T01:43:51.915Z,99.99
2018-01-02T01:44:20.472Z,99.99
2018-01-02T01:44:49.005Z,99.99
2018-01-02T01:45:17.611Z,99.99
2018-01-02T01:45:46.144Z,99.99
2018-01-02T01:46:14.734Z,99.99
2018-01-02T01:46:43.234Z,99.99
2018-01-02T01:47:11.784Z,99.99
2018-01-02T01:47:40.283Z,99.99
2018-01-02T01:48:08.777Z,99.99
2018-01-02T01:48:37.169Z,99.99
2018-01-02T01:49:05.685Z,99.99
2018-01-02T01:49:34.172Z,99.99
2018-01-02T01:50:02.599Z,99.99
2018-01-02T01:50:31.242Z,99.99
2018-01-02T01:50:59.758Z,99.99
2018-01-02T01:51:28.239Z,99.99
2018-01-02T01:51:56.760Z,99.99
2018-01-02T01:52:25.376Z,99.99
2018-01-02T01:52:53.990Z,99.99
2018-01-02T01:53:22.605Z,99.99
2018-01-02T01:53:51.207Z,99.99
2018-01-02T01:54:19.596Z,99.99
2018-01-02T01:54:47.935Z,99.99
2018-01-02T01:55:16.457Z,99.99
2018-01-02T01:55:44.951Z,99.99
2018-01-02T01:56:13.562Z,99.99
2018-01-02T01:56:42.144Z,99.99
2018-01-02T01:57:10.521Z,99.99
2018-01-02T01:57:39.412Z,99.99
2018-01-02T01:58:07.891Z,99.99
2018-01-02T01:58:36.384Z,99.99
2018-01-02T01:59:04.848Z,99.99
2018-01-02T01:59:33.232Z,99.99
2018-01-02T02:00:01.617Z,99.99
2018-01-02T02:00:30.137Z,99.99
2018-01-02T02:00:58.593Z,99.99
2018-01-02T02:01:27.200Z,99.99
2018-01-02T02:01:55.819Z,99.99
2018-01-02T02:02:24.321Z,99.99
2018-01-02T02:02:52.828Z,99.99
2018-01-02T02:03:21.445Z,99.99
2018-01-02T02:03:50.057Z,99.99
2018-01-02T02:04:18.650Z,99.99
2018-01-02T02:04:46.980Z,99.99
2018-01-02T02:05:15.609Z,99.99
2018-01-02T02:05:44.130Z,99.99
2018-01-02T02:06:12.725Z,99.99
2018-01-02T02:06:41.144Z,99.99
2018-01-02T02:07:09.752Z,99.99
2018-01-02T02:07:38.287Z,99.99
2018-01-02T02:08:07.057Z,99.99
2018-01-02T02:08:35.733Z,99.99
2018-01-02T02:09:04.104Z,99.99
2018-01-02T02:09:32.755Z,99.99
2018-01-02T02:10:01.303Z,99.99
2018-01-02T02:10:29.942Z,99.99
2018-01-02T02:10:58.162Z,99.99
2018-01-02T02:11:26.640Z,99.99
2018-01-02T02:11:55.132Z,99.99
2018-01-02T02:12:23.654Z,99.99
2018-01-02T02:12:52.256Z,99.99
2018-01-02T02:13:20.910Z,99.99
2018-01-02T02:13:49.390Z,99.99
2018-01-02T02:14:17.893Z,99.99
2018-01-02T02:14:46.512Z,99.99
2018-01-02T02:15:14.843Z,99.99
2018-01-02T02:15:43.474Z,99.99
2018-01-02T02:16:11.936Z,99.99
2018-01-02T02:16:40.498Z,99.99
2018-01-02T02:17:09.022Z,99.99
2018-01-02T02:17:37.601Z,99.99
2018-01-02T02:18:05.926Z,99.99
2018-01-02T02:18:34.521Z,99.99
2018-01-02T02:19:02.963Z,99.99
2018-01-02T02:19:31.486Z,99.99
2018-01-02T02:19:59.992Z,99.99
2018-01-02T02:20:28.480Z,99.99
2018-01-02T02:20:56.974Z,99.99
2018-01-02T02:21:25.562Z,99.99
2018-01-02T02:21:54.070Z,99.99
2018-01-02T02:22:22.591Z,99.99
2018-01-02T02:22:51.009Z,99.99
2018-01-02T02:23:19.489Z,99.99
2018-01-02T02:23:48.113Z,99.99
2018-01-02T02:24:16.434Z,99.99
2018-01-02T02:24:44.907Z,99.99
2018-01-02T02:25:13.406Z,99.99
2018-01-02T02:25:41.845Z,99.99
2018-01-02T02:26:10.158Z,99.99
2018-01-02T02:26:38.658Z,99.99
2018-01-02T02:27:07.249Z,99.99
2018-01-02T02:27:35.753Z,99.99
2018-01-02T02:28:04.607Z,99.99
2018-01-02T02:28:33.105Z,99.99
2018-01-02T02:29:01.683Z,99.99
2018-01-02T02:29:30.072Z,99.99
2018-01-02T02:29:58.599Z,99.99
2018-01-02T02:30:27.193Z,99.99
2018-01-02T02:30:55.733Z,99.99
2018-01-02T02:31:24.344Z,99.99
2018-01-02T02:31:52.693Z,99.99
2018-01-02T02:32:21.119Z,99.99
2018-01-02T02:32:49.600Z,99.99
2018-01-02T02:33:18.079Z,99.99
2018-01-02T02:33:46.584Z,99.99
2018-01-02T02:34:15.527Z,99.99
2018-01-02T02:34:44.132Z,99.99
2018-01-02T02:35:12.727Z,99.99
2018-01-02T02:35:41.349Z,99.99
2018-01-02T02:36:09.966Z,99.99
2018-01-02T02:36:38.506Z,99.99
2018-01-02T02:37:07.082Z,99.99
2018-01-02T02:37:35.614Z,99.99
2018-01-02T02:38:04.135Z,99.99
2018-01-02T02:38:32.785Z,99.99
2018-01-02T02:39:01.282Z,99.99
2018-01-02T02:39:29.706Z,99.99
2018-01-02T02:39:58.294Z,99.99
2018-01-02T02:40:26.869Z,99.99
2018-01-02T02:40:55.485Z,99.99
2018-01-02T02:41:23.876Z,99.99
2018-01-02T02:41:52.417Z,99.99
2018-01-02T02:42:20.831Z,99.99
2018-01-02T02:42:49.428Z,99.99
2018-01-02T02:43:18.136Z,99.99
2018-01-02T02:43:46.683Z,99.99
2018-01-02T02:44:15.178Z,99.99
2018-01-02T02:44:43.674Z,99.99
2018-01-02T02:45:12.099Z,99.99
2018-01-02T02:45:40.623Z,99.99
2018-01-02T02:46:09.291Z,99.99
2018-01-02T02:46:37.925Z,99.99
2018-01-02T02:47:06.409Z,99.99
2018-01-02T02:47:34.858Z,99.99
2018-01-02T02:48:03.236Z,99.99
2018-01-02T02:48:31.868Z,99.99
2018-01-02T02:49:00.502Z,99.99
2018-01-02T02:49:29.079Z,99.99
2018-01-02T02:49:57.836Z,99.99
2018-01-02T02:50:26.306Z,99.99
2018-01-02T02:50:54.902Z,99.99
2018-01-02T02:51:23.492Z,99.99
2018-01-02T02:51:51.997Z,99.99
2018-01-02T02:52:20.594Z,99.99
2018-01-02T02:52:49.213Z,99.99
2018-01-02T02:53:17.699Z,99.99
2018-01-02T02:53:46.107Z,99.99
2018-01-02T02:54:14.596Z,99.99
2018-01-02T02:54:43.031Z,99.99
2018-01-02T02:55:11.660Z,99.99
2018-01-02T02:55:40.154Z,99.99
2018-01-02T02:56:08.654Z,99.99
2018-01-02T02:56:37.257Z,99.99
2018-01-02T02:57:05.748Z,99.99
2018-01-02T02:57:34.255Z,99.99
2018-01-02T02:58:02.850Z,99.99
2018-01-02T02:58:31.872Z,99.99
2018-01-02T02:59:00.476Z,99.99
2018-01-02T02:59:28.996Z,99.99
2018-01-02T02:59:57.489Z,99.99
2018-01-02T03:00:26.113Z,99.99
2018-01-02T03:00:54.620Z,99.99
2018-01-02T03:01:23.156Z,99.99
2018-01-02T03:01:51.642Z,99.99
2018-01-02T03:02:20.143Z,99.99
2018-01-02T03:02:48.740Z,99.99
2018-01-02T03:03:17.154Z,99.99
2018-01-02T03:03:45.682Z,99.99
2018-01-02T03:04:14.254Z,99.99
2018-01-02T03:04:42.729Z,99.99
2018-01-02T03:05:11.357Z,99.99
2018-01-02T03:05:39.862Z,99.99
2018-01-02T03:06:08.538Z,99.99
2018-01-02T03:06:37.121Z,99.99
2018-01-02T03:07:05.531Z,99.99
2018-01-02T03:07:33.986Z,99.99
2018-01-02T03:08:02.603Z,99.99
2018-01-02T03:08:31.213Z,99.99
2018-01-02T03:08:59.709Z,99.99
2018-01-02T03:09:28.179Z,99.99
2018-01-02T03:09:56.789Z,99.99
2018-01-02T03:10:25.365Z,99.99
2018-01-02T03:10:53.949Z,99.99
2018-01-02T03:11:22.466Z,99.99
2018-01-02T03:11:51.009Z,99.99
2018-01-02T03:12:19.371Z,99.99
2018-01-02T03:12:47.858Z,99.99
2018-01-02T03:13:16.432Z,99.99
2018-01-02T03:13:44.922Z,99.99
2018-01-02T03:14:13.507Z,99.99
2018-01-02T03:14:42.013Z,99.99
2018-01-02T03:15:10.504Z,99.99
2018-01-02T03:15:38.980Z,99.99
2018-01-02T03:16:07.576Z,99.99
2018-01-02T03:16:36.080Z,99.99
2018-01-02T03:17:04.600Z,99.99
2018-01-02T03:17:33.124Z,99.99
2018-01-02T03:18:01.668Z,99.99
2018-01-02T03:18:30.177Z,99.99
2018-01-02T03:18:58.699Z,99.99
2018-01-02T03:19:27.212Z,99.99
2018-01-02T03:19:55.875Z,99.99
2018-01-02T03:20:24.353Z,99.99
2018-01-02T03:20:52.970Z,99.99
2018-01-02T03:21:21.480Z,99.99
2018-01-02T03:21:49.901Z,99.99
2018-01-02T03:22:18.435Z,99.99
2018-01-02T03:22:47.023Z,99.99
2018-01-02T03:23:15.712Z,99.99
2018-01-02T03:23:44.209Z,99.99
2018-01-02T03:24:12.589Z,99.99
2018-01-02T03:24:41.020Z,99.99
2018-01-02T03:25:09.666Z,99.99
2018-01-02T03:25:38.335Z,99.99
2018-01-02T03:26:06.756Z,99.99
2018-01-02T03:26:35.337Z,99.99
2018-01-02T03:27:03.957Z,99.99
2018-01-02T03:27:32.480Z,99.99
2018-01-02T03:28:00.786Z,99.99
2018-01-02T03:28:29.579Z,99.99
2018-01-02T03:28:58.032Z,99.99
2018-01-02T03:29:26.616Z,99.99
2018-01-02T03:29:55.229Z,99.99
2018-01-02T03:30:23.737Z,99.99
2018-01-02T03:30:52.151Z,99.99
2018-01-02T03:31:20.669Z,99.99
2018-01-02T03:31:49.156Z,99.99
2018-01-02T03:32:17.763Z,99.99
2018-01-02T03:32:46.178Z,99.99
2018-01-02T03:33:14.600Z,99.99
2018-01-02T03:33:43.099Z,99.99
2018-01-02T03:34:11.740Z,99.99
2018-01-02T03:34:40.236Z,99.99
2018-01-02T03:35:08.610Z,99.99
2018-01-02T03:35:37.118Z,99.99
2018-01-02T03:36:05.492Z,99.99
2018-01-02T03:36:33.970Z,99.99
2018-01-02T03:37:02.586Z,99.99
2018-01-02T03:37:31.209Z,99.99
2018-01-02T03:37:59.837Z,99.99
2018-01-02T03:38:28.385Z,99.99
2018-01-02T03:38:56.979Z,99.99
2018-01-02T03:39:25.552Z,99.99
2018-01-02T03:39:53.953Z,99.99
2018-01-02T03:40:22.465Z,99.99
2018-01-02T03:40:50.973Z,99.99
2018-01-02T03:41:19.646Z,99.99
2018-01-02T03:41:48.185Z,99.99
2018-01-02T03:42:16.661Z,99.99
2018-01-02T03:42:45.261Z,99.99
2018-01-02T03:43:13.670Z,99.99
2018-01-02T03:43:42.270Z,99.99
2018-01-02T03:44:10.811Z,99.99
2018-01-02T03:44:39.345Z,99.99
2018-01-02T03:45:07.913Z,99.99
2018-01-02T03:45:36.310Z,99.99
2018-01-02T03:46:04.816Z,99.99
2018-01-02T03:46:33.307Z,99.99
2018-01-02T03:47:01.779Z,99.99
2018-01-02T03:47:30.370Z,99.99
2018-01-02T03:47:58.808Z,99.99
2018-01-02T03:48:27.380Z,99.99
2018-01-02T03:48:55.976Z,99.99
2018-01-02T03:49:24.540Z,99.99
2018-01-02T03:49:52.996Z,99.99
2018-01-02T03:50:21.488Z,99.99
2018-01-02T03:50:50.104Z,99.99
2018-01-02T03:51:18.632Z,99.99
2018-01-02T03:51:47.128Z,99.99
2018-01-02T03:52:15.582Z,99.99
2018-01-02T03:52:43.980Z,99.99
2018-01-02T03:53:12.318Z,99.99
2018-01-02T03:53:40.956Z,99.99
2018-01-02T03:54:09.549Z,99.99
2018-01-02T03:54:38.209Z,99.99
2018-01-02T03:55:06.735Z,99.99
2018-01-02T03:55:35.239Z,99.99
2018-01-02T03:56:03.717Z,99.99
2018-01-02T03:56:33.095Z,99.99
2018-01-02T03:57:01.611Z,99.99
2018-01-02T03:57:30.113Z,99.99
2018-01-02T03:57:58.609Z,99.99
2018-01-02T03:58:27.125Z,99.99
2018-01-02T03:58:55.914Z,99.99
2018-01-02T03:59:24.436Z,99.99
2018-01-02T03:59:53.040Z,99.99
2018-01-02T04:00:21.643Z,99.99
2018-01-02T04:00:50.031Z,99.99
2018-01-02T04:01:18.652Z,99.99
2018-01-02T04:01:47.318Z,99.99
2018-01-02T04:02:15.961Z,99.99
2018-01-02T04:02:44.500Z,99.99
2018-01-02T04:03:13.047Z,99.99
2018-01-02T04:03:41.644Z,99.99
2018-01-02T04:04:10.286Z,99.99
2018-01-02T04:04:38.906Z,99.99
2018-01-02T04:05:07.456Z,99.99
2018-01-02T04:05:36.031Z,99.99
2018-01-02T04:06:04.701Z,99.99
2018-01-02T04:06:33.180Z,99.99
2018-01-02T04:07:01.801Z,99.99
2018-01-02T04:07:30.312Z,99.99
2018-01-02T04:07:58.828Z,99.99
2018-01-02T04:08:27.206Z,99.99
2018-01-02T04:08:55.533Z,99.99
2018-01-02T04:09:24.099Z,99.99
2018-01-02T04:09:52.582Z,99.99
2018-01-02T04:10:21.219Z,99.99
2018-01-02T04:10:49.774Z,99.99
2018-01-02T04:11:18.404Z,99.99
2018-01-02T04:11:46.956Z,99.99
2018-01-02T04:12:15.532Z,99.99
2018-01-02T04:12:44.132Z,99.99
2018-01-02T04:13:12.632Z,99.99
2018-01-02T04:13:41.085Z,99.99
2018-01-02T04:14:09.652Z,99.99
2018-01-02T04:14:38.294Z,99.99
2018-01-02T04:15:06.816Z,99.99
2018-01-02T04:15:35.308Z,99.99
2018-01-02T04:16:03.857Z,99.99
2018-01-02T04:16:32.428Z,99.99
2018-01-02T04:17:00.974Z,99.99
2018-01-02T04:17:29.230Z,99.99
2018-01-02T04:17:57.662Z,99.99
2018-01-02T04:18:26.274Z,99.99
2018-01-02T04:18:54.931Z,99.99
2018-01-02T04:19:23.534Z,99.99
2018-01-02T04:19:51.944Z,99.99
2018-01-02T04:20:20.342Z,99.99
2018-01-02T04:20:48.997Z,99.99
2018-01-02T04:21:17.411Z,99.99
2018-01-02T04:21:45.893Z,99.99
2018-01-02T04:22:14.538Z,99.99
2018-01-02T04:22:43.041Z,99.99
2018-01-02T04:23:11.622Z,99.99
2018-01-02T04:23:40.219Z,99.99
2018-01-02T04:24:08.865Z,99.99
2018-01-02T04:24:37.357Z,99.99
2018-01-02T04:25:05.876Z,99.99
2018-01-02T04:25:34.257Z,99.99
2018-01-02T04:26:02.802Z,99.99
2018-01-02T04:26:31.325Z,99.99
2018-01-02T04:26:59.793Z,99.99
2018-01-02T04:27:28.414Z,99.99
2018-01-02T04:27:56.945Z,99.99
2018-01-02T04:28:25.431Z,99.99
2018-01-02T04:28:54.181Z,99.99
2018-01-02T04:29:22.707Z,99.99
2018-01-02T04:29:51.346Z,99.99
2018-01-02T04:30:19.957Z,99.99
2018-01-02T04:30:48.584Z,99.99
2018-01-02T04:31:17.194Z,99.99
2018-01-02T04:31:45.750Z,99.99
2018-01-02T04:32:14.341Z,99.99
2018-01-02T04:32:42.902Z,99.99
2018-01-02T04:33:11.462Z,99.99
2018-01-02T04:33:39.963Z,99.99
2018-01-02T04:34:08.630Z,99.99
2018-01-02T04:34:37.232Z,99.99
2018-01-02T04:35:05.816Z,99.99
2018-01-02T04:35:34.360Z,99.99
2018-01-02T04:36:02.868Z,99.99
2018-01-02T04:36:31.365Z,99.99
2018-01-02T04:36:59.778Z,99.99
2018-01-02T04:37:28.325Z,99.99
2018-01-02T04:37:56.929Z,99.99
2018-01-02T04:38:25.444Z,99.99
2018-01-02T04:38:53.919Z,99.99
2018-01-02T04:39:22.453Z,99.99
2018-01-02T04:39:50.853Z,99.99
2018-01-02T04:40:19.276Z,99.99
2018-01-02T04:40:47.783Z,99.99
2018-01-02T04:41:16.319Z,99.99
2018-01-02T04:41:44.819Z,99.99
2018-01-02T04:42:13.456Z,99.99
2018-01-02T04:42:41.965Z,99.99
2018-01-02T04:43:10.458Z,99.99
2018-01-02T04:43:38.882Z,99.99
2018-01-02T04:44:07.599Z,99.99
2018-01-02T04:44:36.206Z,99.99
2018-01-02T04:45:04.824Z,99.99
2018-01-02T04:45:33.222Z,99.99
2018-01-02T04:46:01.816Z,99.99
2018-01-02T04:46:30.214Z,99.99
2018-01-02T04:46:58.714Z,99.99
2018-01-02T04:47:27.275Z,99.99
2018-01-02T04:47:55.686Z,99.99
2018-01-02T04:48:24.308Z,99.99
2018-01-02T04:48:52.801Z,99.99
2018-01-02T04:49:21.338Z,99.99
2018-01-02T04:49:49.761Z,99.99
2018-01-02T04:50:18.388Z,99.99
2018-01-02T04:50:46.861Z,99.99
2018-01-02T04:51:15.461Z,99.99
2018-01-02T04:51:43.829Z,99.99
2018-01-02T04:52:12.345Z,99.99
2018-01-02T04:52:40.728Z,99.99
2018-01-02T04:53:09.361Z,99.99
2018-01-02T04:53:37.743Z,99.99
2018-01-02T04:54:06.385Z,99.99
2018-01-02T04:54:35.695Z,99.99
2018-01-02T04:55:04.179Z,99.99
2018-01-02T04:55:32.674Z,99.99
2018-01-02T04:56:01.283Z,99.99
2018-01-02T04:56:29.778Z,99.99
2018-01-02T04:56:58.247Z,99.99
2018-01-02T04:57:26.738Z,99.99
2018-01-02T04:57:55.201Z,99.99
2018-01-02T04:58:23.696Z,99.99
2018-01-02T04:58:52.107Z,99.99
2018-01-02T04:59:21.127Z,99.99
2018-01-02T04:59:49.639Z,99.99
2018-01-02T05:00:18.167Z,99.99
2018-01-02T05:00:46.700Z,99.99
2018-01-02T05:01:15.318Z,99.99
2018-01-02T05:01:43.782Z,99.99
2018-01-02T05:02:12.427Z,99.99
2018-01-02T05:02:40.846Z,99.99
2018-01-02T05:03:09.467Z,99.99
2018-01-02T05:03:37.998Z,99.99
2018-01-02T05:04:06.572Z,99.99
2018-01-02T05:04:35.034Z,99.99
2018-01-02T05:05:03.657Z,99.99
2018-01-02T05:05:32.270Z,99.99
2018-01-02T05:06:00.680Z,99.99
2018-01-02T05:06:29.163Z,99.99
2018-01-02T05:06:57.685Z,99.99
2018-01-02T05:07:26.312Z,99.99
2018-01-02T05:07:54.768Z,99.99
2018-01-02T05:08:23.174Z,99.99
2018-01-02T05:08:51.581Z,99.99
2018-01-02T05:09:20.084Z,99.99
2018-01-02T05:09:48.537Z,99.99
2018-01-02T05:10:17.139Z,99.99
2018-01-02T05:10:45.700Z,99.99
2018-01-02T05:11:14.102Z,99.99
2018-01-02T05:11:42.718Z,99.99
2018-01-02T05:12:11.272Z,99.99
2018-01-02T05:12:39.842Z,99.99
2018-01-02T05:13:08.475Z,99.99
2018-01-02T05:13:37.147Z,99.99
2018-01-02T05:14:05.564Z,99.99
2018-01-02T05:14:34.165Z,99.99
2018-01-02T05:15:02.680Z,99.99
2018-01-02T05:15:31.220Z,99.99
2018-01-02T05:15:59.719Z,99.99
2018-01-02T05:16:28.154Z,99.99
2018-01-02T05:16:56.557Z,99.99
2018-01-02T05:17:25.078Z,99.99
2018-01-02T05:17:53.698Z,99.99
2018-01-02T05:18:22.279Z,99.99
2018-01-02T05:18:50.762Z,99.99
2018-01-02T05:19:19.508Z,99.99
2018-01-02T05:19:48.116Z,99.99
2018-01-02T05:20:16.592Z,99.99
2018-01-02T05:20:44.864Z,99.99
2018-01-02T05:21:13.365Z,99.99
2018-01-02T05:21:41.861Z,99.99
2018-01-02T05:22:10.422Z,99.99
2018-01-02T05:22:38.967Z,99.99
2018-01-02T05:23:07.290Z,99.99
2018-01-02T05:23:35.925Z,99.99
2018-01-02T05:24:04.528Z,99.99
2018-01-02T05:24:32.933Z,99.99
2018-01-02T05:25:01.504Z,99.99
2018-01-02T05:25:29.970Z,99.99
2018-01-02T05:25:58.499Z,99.99
2018-01-02T05:26:26.979Z,99.99
2018-01-02T05:26:55.537Z,99.99
2018-01-02T05:27:24.007Z,99.99
2018-01-02T05:27:52.531Z,99.99
2018-01-02T05:28:21.031Z,99.99
2018-01-02T05:28:49.583Z,99.99
2018-01-02T05:29:18.082Z,99.99
2018-01-02T05:29:46.850Z,99.99
2018-01-02T05:30:15.430Z,99.99
2018-01-02T05:30:44.088Z,99.99
2018-01-02T05:31:12.664Z,99.99
2018-01-02T05:31:41.069Z,99.99
2018-01-02T05:32:09.587Z,99.99
2018-01-02T05:32:38.149Z,99.99
2018-01-02T05:33:06.771Z,99.99
2018-01-02T05:33:35.416Z,99.99
2018-01-02T05:34:03.905Z,99.99
2018-01-02T05:34:32.374Z,99.99
2018-01-02T05:35:00.711Z,99.99
2018-01-02T05:35:29.205Z,99.99
2018-01-02T05:35:57.823Z,99.99
2018-01-02T05:36:26.422Z,99.99
2018-01-02T05:36:55.067Z,99.99
2018-01-02T05:37:23.348Z,99.99
2018-01-02T05:37:51.872Z,99.99
2018-01-02T05:38:20.280Z,99.99
2018-01-02T05:38:48.750Z,99.99
2018-01-02T05:39:17.352Z,99.99
2018-01-02T05:39:45.847Z,99.99
2018-01-02T05:40:14.293Z,99.99
2018-01-02T05:40:42.684Z,99.99
2018-01-02T05:41:11.234Z,99.99
2018-01-02T05:41:39.738Z,99.99
2018-01-02T05:42:08.128Z,99.99
2018-01-02T05:42:36.537Z,99.99
2018-01-02T05:43:05.134Z,99.99
2018-01-02T05:43:33.763Z,99.99
2018-01-02T05:44:02.347Z,99.99
2018-01-02T05:44:31.037Z,99.99
2018-01-02T05:44:59.535Z,99.99
2018-01-02T05:45:27.978Z,99.99
2018-01-02T05:45:56.590Z,99.99
2018-01-02T05:46:25.188Z,99.99
2018-01-02T05:46:53.555Z,99.99
2018-01-02T05:47:22.155Z,99.99
2018-01-02T05:47:50.540Z,99.99
2018-01-02T05:48:19.050Z,99.99
2018-01-02T05:48:47.623Z,99.99
2018-01-02T05:49:16.168Z,99.99
2018-01-02T05:49:44.710Z,99.99
2018-01-02T05:50:13.218Z,99.99
2018-01-02T05:50:41.721Z,99.99
2018-01-02T05:51:10.253Z,99.99
2018-01-02T05:51:38.850Z,99.99
2018-01-02T05:52:07.246Z,99.99
2018-01-02T05:52:35.635Z,99.99
2018-01-02T05:53:04.099Z,99.99
2018-01-02T05:53:32.724Z,99.99
2018-01-02T05:54:01.234Z,99.99
2018-01-02T05:54:29.631Z,99.99
2018-01-02T05:54:58.159Z,99.99
2018-01-02T05:55:26.701Z,99.99
2018-01-02T05:55:55.299Z,99.99
2018-01-02T05:56:23.888Z,99.99
2018-01-02T05:56:52.495Z,99.99
2018-01-02T05:57:21.097Z,99.99
2018-01-02T05:57:49.606Z,99.99
2018-01-02T05:58:18.139Z,99.99
2018-01-02T05:58:46.584Z,99.99
2018-01-02T05:59:14.979Z,99.99
2018-01-02T05:59:43.918Z,99.99
2018-01-02T06:00:12.404Z,99.99
2018-01-02T06:00:40.853Z,99.99
2018-01-02T06:01:09.493Z,99.99
2018-01-02T06:01:38.124Z,99.99
2018-01-02T06:02:06.677Z,99.99
2018-01-02T06:02:35.179Z,99.99
2018-01-02T06:03:03.793Z,99.99
2018-01-02T06:03:32.460Z,99.99
2018-01-02T06:04:01.008Z,99.99
2018-01-02T06:04:29.663Z,99.99
2018-01-02T06:04:58.233Z,99.99
2018-01-02T06:05:26.837Z,99.99
2018-01-02T06:05:55.358Z,99.99
2018-01-02T06:06:23.752Z,99.99
2018-01-02T06:06:52.283Z,99.99
2018-01-02T06:07:20.766Z,99.99